Terminal Aerodrome Forecast
Issued by NWS

Home | Current Version | Previous Version | Text Only | Print | Product List | Glossary On
Versions: 1 2 3 4 5 6 7 8 9 10 11 12 13
000
FTUS42 KILM 270520
TAFCRE
TAF
KCRE 270520Z 2706/2806 20008KT P6SM VCSH SCT020 BKN050
      TEMPO 2709/2713 BKN020
     FM271300 19008KT P6SM VCSH SCT025 BKN080
     FM271800 18011G16KT P6SM SCT250
     FM280300 20008KT P6SM SCT250=

USA.gov is the U.S. government's official web portal to all federal, state and local government web resources and services.